sensor_id;sensor_type;location;lat;lon;timestamp;pressure;altitude;pressure_sealevel;temperature;humidity
81379;BME280;70830;42.290;-71.354;2024-03-23T00:53:54;102141.31;;;4.16;20.89
81379;BME280;70830;42.290;-71.354;2024-03-23T00:56:20;102131.66;;;4.04;22.14
81379;BME280;70830;42.290;-71.354;2024-03-23T00:58:46;102118.66;;;4.09;21.26
81379;BME280;70830;42.290;-71.354;2024-03-23T01:01:11;102115.25;;;4.17;21.52
81379;BME280;70830;42.290;-71.354;2024-03-23T01:03:37;102078.50;;;3.93;21.83
81379;BME280;70830;42.290;-71.354;2024-03-23T01:06:03;102075.88;;;3.90;21.35
81379;BME280;70830;42.290;-71.354;2024-03-23T01:08:29;102124.75;;;4.11;22.05
81379;BME280;70830;42.290;-71.354;2024-03-23T01:10:59;102079.31;;;3.88;22.37
81379;BME280;70830;42.290;-71.354;2024-03-23T01:13:26;102082.00;;;3.98;21.82
81379;BME280;70830;42.290;-71.354;2024-03-23T01:15:53;102059.34;;;3.91;22.06
81379;BME280;70830;42.290;-71.354;2024-03-23T01:18:23;102079.47;;;4.07;22.32
81379;BME280;70830;42.290;-71.354;2024-03-23T01:20:50;102065.47;;;3.93;21.46
81379;BME280;70830;42.290;-71.354;2024-03-23T01:23:16;102095.13;;;4.06;21.40
81379;BME280;70830;42.290;-71.354;2024-03-23T01:25:42;102094.22;;;4.02;22.09
81379;BME280;70830;42.290;-71.354;2024-03-23T01:28:07;102103.81;;;4.05;21.22
81379;BME280;70830;42.290;-71.354;2024-03-23T01:30:34;102086.34;;;3.95;21.87
81379;BME280;70830;42.290;-71.354;2024-03-23T01:33:00;102115.97;;;4.03;21.60
81379;BME280;70830;42.290;-71.354;2024-03-23T01:35:26;102094.16;;;3.95;21.44
81379;BME280;70830;42.290;-71.354;2024-03-23T01:37:52;102089.84;;;3.97;21.89
81379;BME280;70830;42.290;-71.354;2024-03-23T01:40:18;102081.97;;;3.92;21.90
81379;BME280;70830;42.290;-71.354;2024-03-23T01:42:57;102084.66;;;4.01;21.93
81379;BME280;70830;42.290;-71.354;2024-03-23T01:45:24;102089.84;;;3.98;21.70
81379;BME280;70830;42.290;-71.354;2024-03-23T01:47:51;102096.75;;;3.90;22.59
81379;BME280;70830;42.290;-71.354;2024-03-23T01:50:21;102094.19;;;3.96;21.73
81379;BME280;70830;42.290;-71.354;2024-03-23T01:52:48;102082.84;;;3.96;22.25
81379;BME280;70830;42.290;-71.354;2024-03-23T01:55:14;102048.84;;;3.82;21.84
81379;BME280;70830;42.290;-71.354;2024-03-23T01:57:40;102062.88;;;3.96;21.64
81379;BME280;70830;42.290;-71.354;2024-03-23T02:00:06;102023.59;;;3.75;21.61
81379;BME280;70830;42.290;-71.354;2024-03-23T02:02:32;102071.56;;;3.98;22.32
81379;BME280;70830;42.290;-71.354;2024-03-23T02:04:58;102086.38;;;4.01;21.90
81379;BME280;70830;42.290;-71.354;2024-03-23T02:07:24;102093.31;;;3.97;22.44
81379;BME280;70830;42.290;-71.354;2024-03-23T02:09:51;102108.97;;;3.99;22.70
81379;BME280;70830;42.290;-71.354;2024-03-23T02:12:18;102112.47;;;4.02;22.07
81379;BME280;70830;42.290;-71.354;2024-03-23T02:14:44;102068.00;;;3.84;22.36
81379;BME280;70830;42.290;-71.354;2024-03-23T02:17:09;102090.75;;;4.05;22.21
81379;BME280;70830;42.290;-71.354;2024-03-23T02:19:35;102087.31;;;4.07;22.85
81379;BME280;70830;42.290;-71.354;2024-03-23T02:22:01;102076.03;;;4.08;23.16
81379;BME280;70830;42.290;-71.354;2024-03-23T02:24:29;102077.75;;;4.09;23.32
81379;BME280;70830;42.290;-71.354;2024-03-23T02:26:55;102074.28;;;4.10;23.27
81379;BME280;70830;42.290;-71.354;2024-03-23T02:29:21;102055.06;;;3.99;23.29
81379;BME280;70830;42.290;-71.354;2024-03-23T02:31:47;102070.72;;;4.02;23.38
81379;BME280;70830;42.290;-71.354;2024-03-23T02:34:12;102073.38;;;4.07;23.44
81379;BME280;70830;42.290;-71.354;2024-03-23T02:36:38;102069.91;;;4.06;23.88
81379;BME280;70830;42.290;-71.354;2024-03-23T02:39:04;102070.81;;;4.08;24.53
81379;BME280;70830;42.290;-71.354;2024-03-23T02:41:30;102062.09;;;4.06;24.23
81379;BME280;70830;42.290;-71.354;2024-03-23T02:43:56;102084.69;;;4.07;23.84
81379;BME280;70830;42.290;-71.354;2024-03-23T02:46:22;102062.06;;;4.05;23.78
81379;BME280;70830;42.290;-71.354;2024-03-23T02:48:48;102039.31;;;3.87;23.10
81379;BME280;70830;42.290;-71.354;2024-03-23T02:51:14;102079.44;;;4.01;23.59
81379;BME280;70830;42.290;-71.354;2024-03-23T02:53:41;102042.69;;;3.76;23.63
81379;BME280;70830;42.290;-71.354;2024-03-23T02:56:06;102035.75;;;3.73;23.61
81379;BME280;70830;42.290;-71.354;2024-03-23T02:58:33;102072.34;;;3.85;24.50
81379;BME280;70830;42.290;-71.354;2024-03-23T03:01:00;102075.88;;;3.90;24.78
81379;BME280;70830;42.290;-71.354;2024-03-23T03:03:25;102046.19;;;3.76;25.32
81379;BME280;70830;42.290;-71.354;2024-03-23T03:05:55;102067.16;;;3.90;25.26
81379;BME280;70830;42.290;-71.354;2024-03-23T03:08:21;102058.44;;;3.88;24.99
81379;BME280;70830;42.290;-71.354;2024-03-23T03:10:47;102042.72;;;3.77;25.52
81379;BME280;70830;42.290;-71.354;2024-03-23T03:13:13;102045.34;;;3.80;25.13
81379;BME280;70830;42.290;-71.354;2024-03-23T03:15:41;102055.78;;;3.80;25.63
81379;BME280;70830;42.290;-71.354;2024-03-23T03:18:06;102044.44;;;3.78;25.94
81379;BME280;70830;42.290;-71.354;2024-03-23T03:20:32;102065.44;;;3.90;26.67
81379;BME280;70830;42.290;-71.354;2024-03-23T03:22:58;102029.63;;;3.71;26.68
81379;BME280;70830;42.290;-71.354;2024-03-23T03:25:24;102073.28;;;3.93;26.59
81379;BME280;70830;42.290;-71.354;2024-03-23T03:27:50;102046.19;;;3.76;27.39
81379;BME280;70830;42.290;-71.354;2024-03-23T03:30:16;102077.63;;;3.94;27.53
81379;BME280;70830;42.290;-71.354;2024-03-23T03:32:42;102061.03;;;3.83;27.93
81379;BME280;70830;42.290;-71.354;2024-03-23T03:35:08;102077.63;;;3.94;27.71
81379;BME280;70830;42.290;-71.354;2024-03-23T03:37:34;102088.06;;;3.94;27.87
81379;BME280;70830;42.290;-71.354;2024-03-23T03:40:00;102075.00;;;3.91;27.64
81379;BME280;70830;42.290;-71.354;2024-03-23T03:42:31;102059.25;;;3.79;28.12
81379;BME280;70830;42.290;-71.354;2024-03-23T03:44:57;102027.84;;;3.64;28.74
81379;BME280;70830;42.290;-71.354;2024-03-23T03:47:23;102072.34;;;3.82;29.24
81379;BME280;70830;42.290;-71.354;2024-03-23T03:49:49;102073.97;;;3.72;30.71
81379;BME280;70830;42.290;-71.354;2024-03-23T03:52:15;102069.56;;;3.65;31.92
81379;BME280;70830;42.290;-71.354;2024-03-23T03:54:41;102067.69;;;3.51;32.88
81379;BME280;70830;42.290;-71.354;2024-03-23T03:57:07;102071.06;;;3.41;34.01
81379;BME280;70830;42.290;-71.354;2024-03-23T03:59:32;102093.63;;;3.39;34.15
81379;BME280;70830;42.290;-71.354;2024-03-23T04:01:58;102069.03;;;3.14;35.84
81379;BME280;70830;42.290;-71.354;2024-03-23T04:04:24;102088.16;;;3.15;36.93
81379;BME280;70830;42.290;-71.354;2024-03-23T04:06:50;102096.78;;;3.11;37.67
81379;BME280;70830;42.290;-71.354;2024-03-23T04:09:23;102086.09;;;2.89;38.81
81379;BME280;70830;42.290;-71.354;2024-03-23T04:11:49;102091.19;;;2.80;38.47
81379;BME280;70830;42.290;-71.354;2024-03-23T04:14:15;102101.56;;;2.77;39.18
81379;BME280;70830;42.290;-71.354;2024-03-23T04:16:40;102091.94;;;2.72;39.13
81379;BME280;70830;42.290;-71.354;2024-03-23T04:19:06;102103.19;;;2.69;39.92
81379;BME280;70830;42.290;-71.354;2024-03-23T04:21:32;102108.38;;;2.69;40.21
81379;BME280;70830;42.290;-71.354;2024-03-23T04:23:58;102087.34;;;2.53;40.10
81379;BME280;70830;42.290;-71.354;2024-03-23T04:26:24;102110.03;;;2.63;41.44
81379;BME280;70830;42.290;-71.354;2024-03-23T04:28:50;102109.97;;;2.57;41.63
81379;BME280;70830;42.290;-71.354;2024-03-23T04:31:16;102067.22;;;2.41;41.65
81379;BME280;70830;42.290;-71.354;2024-03-23T04:33:42;102068.97;;;2.42;41.69
81379;BME280;70830;42.290;-71.354;2024-03-23T04:36:08;102080.41;;;2.53;41.66
81379;BME280;70830;42.290;-71.354;2024-03-23T04:38:35;102075.09;;;2.44;42.23
81379;BME280;70830;42.290;-71.354;2024-03-23T04:41:01;102069.75;;;2.35;42.53
81379;BME280;70830;42.290;-71.354;2024-03-23T04:43:27;102082.91;;;2.47;43.00
81379;BME280;70830;42.290;-71.354;2024-03-23T04:45:54;102085.50;;;2.46;43.99
81379;BME280;70830;42.290;-71.354;2024-03-23T04:48:21;102084.59;;;2.42;44.05
81379;BME280;70830;42.290;-71.354;2024-03-23T04:50:54;102087.16;;;2.39;44.40
81379;BME280;70830;42.290;-71.354;2024-03-23T04:53:21;102056.47;;;2.18;44.80
81379;BME280;70830;42.290;-71.354;2024-03-23T04:55:48;102080.91;;;2.28;44.82
81379;BME280;70830;42.290;-71.354;2024-03-23T04:58:14;102079.06;;;2.21;44.88
81379;BME280;70830;42.290;-71.354;2024-03-23T05:00:40;102065.91;;;2.13;45.25
81379;BME280;70830;42.290;-71.354;2024-03-23T05:03:06;102083.44;;;2.23;45.26
81379;BME280;70830;42.290;-71.354;2024-03-23T05:05:31;102083.50;;;2.28;45.72
81379;BME280;70830;42.290;-71.354;2024-03-23T05:07:57;102078.38;;;2.31;45.95
81379;BME280;70830;42.290;-71.354;2024-03-23T05:10:23;102071.31;;;2.26;46.00
81379;BME280;70830;42.290;-71.354;2024-03-23T05:12:49;102067.00;;;2.28;46.66
81379;BME280;70830;42.290;-71.354;2024-03-23T05:15:15;102056.47;;;2.17;46.43
81379;BME280;70830;42.290;-71.354;2024-03-23T05:17:41;102063.47;;;2.22;47.19
81379;BME280;70830;42.290;-71.354;2024-03-23T05:20:07;102029.34;;;2.03;47.38
81379;BME280;70830;42.290;-71.354;2024-03-23T05:22:38;102055.56;;;2.16;47.99
81379;BME280;70830;42.290;-71.354;2024-03-23T05:25:04;102057.28;;;2.16;47.79
81379;BME280;70830;42.290;-71.354;2024-03-23T05:27:33;102054.66;;;2.13;47.63
81379;BME280;70830;42.290;-71.354;2024-03-23T05:29:59;102008.19;;;1.79;48.17
81379;BME280;70830;42.290;-71.354;2024-03-23T05:32:25;102022.09;;;1.82;48.71
81379;BME280;70830;42.290;-71.354;2024-03-23T05:34:51;102030.78;;;1.83;49.44
81379;BME280;70830;42.290;-71.354;2024-03-23T05:37:22;102032.56;;;1.87;49.76
81379;BME280;70830;42.290;-71.354;2024-03-23T05:39:48;102045.63;;;1.90;49.70
81379;BME280;70830;42.290;-71.354;2024-03-23T05:42:18;102063.84;;;1.91;50.84
81379;BME280;70830;42.290;-71.354;2024-03-23T05:44:45;102040.34;;;1.85;51.22
81379;BME280;70830;42.290;-71.354;2024-03-23T05:47:11;102021.25;;;1.82;51.40
81379;BME280;70830;42.290;-71.354;2024-03-23T05:49:42;102038.69;;;1.89;51.52
81379;BME280;70830;42.290;-71.354;2024-03-23T05:52:09;102038.63;;;1.86;50.65
81379;BME280;70830;42.290;-71.354;2024-03-23T05:54:35;102020.38;;;1.83;51.97
81379;BME280;70830;42.290;-71.354;2024-03-23T05:57:01;102008.09;;;1.73;52.07
81379;BME280;70830;42.290;-71.354;2024-03-23T05:59:28;101983.66;;;1.62;52.52
81379;BME280;70830;42.290;-71.354;2024-03-23T06:01:54;102002.91;;;1.74;53.03
81379;BME280;70830;42.290;-71.354;2024-03-23T06:04:19;101977.50;;;1.58;52.71
81379;BME280;70830;42.290;-71.354;2024-03-23T06:06:46;102000.13;;;1.64;54.49
81379;BME280;70830;42.290;-71.354;2024-03-23T06:09:12;102010.53;;;1.62;54.19
81379;BME280;70830;42.290;-71.354;2024-03-23T06:11:38;102005.25;;;1.58;54.41
81379;BME280;70830;42.290;-71.354;2024-03-23T06:14:04;102003.41;;;1.52;54.68
81379;BME280;70830;42.290;-71.354;2024-03-23T06:16:30;102012.13;;;1.56;55.53
81379;BME280;70830;42.290;-71.354;2024-03-23T06:18:56;101994.78;;;1.53;55.79
81379;BME280;70830;42.290;-71.354;2024-03-23T06:21:22;101987.81;;;1.52;56.71
81379;BME280;70830;42.290;-71.354;2024-03-23T06:23:51;101966.84;;;1.41;56.73
81379;BME280;70830;42.290;-71.354;2024-03-23T06:26:18;101986.91;;;1.50;57.04
81379;BME280;70830;42.290;-71.354;2024-03-23T06:28:45;101989.50;;;1.50;56.78
81379;BME280;70830;42.290;-71.354;2024-03-23T06:31:11;101965.22;;;1.48;56.74
81379;BME280;70830;42.290;-71.354;2024-03-23T06:33:37;101969.53;;;1.47;57.83
81379;BME280;70830;42.290;-71.354;2024-03-23T06:36:09;101925.06;;;1.29;58.85
81379;BME280;70830;42.290;-71.354;2024-03-23T06:38:35;101918.22;;;1.33;58.72
81379;BME280;70830;42.290;-71.354;2024-03-23T06:41:04;101934.66;;;1.32;58.56
81379;BME280;70830;42.290;-71.354;2024-03-23T06:43:30;101937.22;;;1.29;58.90
81379;BME280;70830;42.290;-71.354;2024-03-23T06:45:56;101929.38;;;1.27;60.42
81379;BME280;70830;42.290;-71.354;2024-03-23T06:48:23;101929.22;;;1.18;59.97
81379;BME280;70830;42.290;-71.354;2024-03-23T06:50:49;101927.31;;;1.08;59.74
81379;BME280;70830;42.290;-71.354;2024-03-23T06:53:15;101956.13;;;1.22;60.30
81379;BME280;70830;42.290;-71.354;2024-03-23T06:55:41;101912.56;;;1.06;60.62
81379;BME280;70830;42.290;-71.354;2024-03-23T06:58:08;101918.66;;;1.09;61.01
81379;BME280;70830;42.290;-71.354;2024-03-23T07:00:35;101926.50;;;1.11;61.41
81379;BME280;70830;42.290;-71.354;2024-03-23T07:03:01;101923.91;;;1.11;61.95
81379;BME280;70830;42.290;-71.354;2024-03-23T07:05:27;101884.59;;;0.91;62.24
81379;BME280;70830;42.290;-71.354;2024-03-23T07:07:53;101883.88;;;0.98;62.45
81379;BME280;70830;42.290;-71.354;2024-03-23T07:10:18;101886.50;;;1.00;63.08
81379;BME280;70830;42.290;-71.354;2024-03-23T07:12:45;101874.19;;;0.90;63.48
81379;BME280;70830;42.290;-71.354;2024-03-23T07:15:11;101878.63;;;0.95;63.40
81379;BME280;70830;42.290;-71.354;2024-03-23T07:17:36;101874.34;;;0.97;64.32
81379;BME280;70830;42.290;-71.354;2024-03-23T07:20:03;101865.66;;;0.97;64.19
81379;BME280;70830;42.290;-71.354;2024-03-23T07:22:32;101840.28;;;0.79;64.34
81379;BME280;70830;42.290;-71.354;2024-03-23T07:25:01;101851.78;;;0.93;64.65
81379;BME280;70830;42.290;-71.354;2024-03-23T07:27:27;101852.69;;;0.95;64.37
81379;BME280;70830;42.290;-71.354;2024-03-23T07:29:53;101838.66;;;0.87;64.88
81379;BME280;70830;42.290;-71.354;2024-03-23T07:32:20;101830.84;;;0.84;65.19
81379;BME280;70830;42.290;-71.354;2024-03-23T07:34:46;101831.63;;;0.80;64.85
81379;BME280;70830;42.290;-71.354;2024-03-23T07:37:12;101852.63;;;0.92;65.56
81379;BME280;70830;42.290;-71.354;2024-03-23T07:39:41;101818.59;;;0.76;65.66
81379;BME280;70830;42.290;-71.354;2024-03-23T07:42:07;101836.06;;;0.87;66.20
81379;BME280;70830;42.290;-71.354;2024-03-23T07:44:33;101845.72;;;0.94;66.44
81379;BME280;70830;42.290;-71.354;2024-03-23T07:47:00;101842.22;;;0.92;66.51
81379;BME280;70830;42.290;-71.354;2024-03-23T07:49:26;101791.63;;;0.66;66.44
81379;BME280;70830;42.290;-71.354;2024-03-23T07:51:52;101827.38;;;0.84;66.88
81379;BME280;70830;42.290;-71.354;2024-03-23T07:54:18;101828.25;;;0.84;67.43
81379;BME280;70830;42.290;-71.354;2024-03-23T07:56:44;101809.03;;;0.73;67.44
81379;BME280;70830;42.290;-71.354;2024-03-23T07:59:10;101807.50;;;0.84;67.09
81379;BME280;70830;42.290;-71.354;2024-03-23T08:01:36;101784.81;;;0.74;68.47
81379;BME280;70830;42.290;-71.354;2024-03-23T08:04:02;101788.28;;;0.73;68.02
81379;BME280;70830;42.290;-71.354;2024-03-23T08:06:28;101794.38;;;0.77;68.36
81379;BME280;70830;42.290;-71.354;2024-03-23T08:08:57;101796.97;;;0.75;68.49
81379;BME280;70830;42.290;-71.354;2024-03-23T08:11:27;101781.22;;;0.64;68.97
81379;BME280;70830;42.290;-71.354;2024-03-23T08:13:53;101795.28;;;0.80;68.78
81379;BME280;70830;42.290;-71.354;2024-03-23T08:16:19;101791.03;;;0.84;69.80
81379;BME280;70830;42.290;-71.354;2024-03-23T08:18:45;101794.53;;;0.84;68.73
81379;BME280;70830;42.290;-71.354;2024-03-23T08:21:11;101791.91;;;0.84;69.48
81379;BME280;70830;42.290;-71.354;2024-03-23T08:23:37;101751.00;;;0.68;68.97
81379;BME280;70830;42.290;-71.354;2024-03-23T08:26:05;101759.81;;;0.79;68.90
81379;BME280;70830;42.290;-71.354;2024-03-23T08:28:32;101760.72;;;0.81;69.37
81379;BME280;70830;42.290;-71.354;2024-03-23T08:31:01;101735.50;;;0.74;69.36
81379;BME280;70830;42.290;-71.354;2024-03-23T08:33:28;101746.06;;;0.85;68.93
81379;BME280;70830;42.290;-71.354;2024-03-23T08:36:07;101744.34;;;0.85;70.03
81379;BME280;70830;42.290;-71.354;2024-03-23T08:38:34;101735.66;;;0.83;69.76
81379;BME280;70830;42.290;-71.354;2024-03-23T08:41:06;101733.94;;;0.85;70.37
81379;BME280;70830;42.290;-71.354;2024-03-23T08:43:35;101708.66;;;0.72;70.68
81379;BME280;70830;42.290;-71.354;2024-03-23T08:46:04;101719.25;;;0.84;70.40
81379;BME280;70830;42.290;-71.354;2024-03-23T08:48:44;101717.44;;;0.80;70.99
81379;BME280;70830;42.290;-71.354;2024-03-23T08:51:12;101719.28;;;0.87;71.29
81379;BME280;70830;42.290;-71.354;2024-03-23T08:53:38;101682.69;;;0.70;71.37
81379;BME280;70830;42.290;-71.354;2024-03-23T08:56:06;101731.34;;;0.85;70.97
81379;BME280;70830;42.290;-71.354;2024-03-23T08:58:33;101732.28;;;0.89;70.58
81379;BME280;70830;42.290;-71.354;2024-03-23T09:01:08;101726.22;;;0.88;70.92
81379;BME280;70830;42.290;-71.354;2024-03-23T09:03:35;101720.94;;;0.82;71.30
81379;BME280;70830;42.290;-71.354;2024-03-23T09:06:02;101705.31;;;0.78;71.11
81379;BME280;70830;42.290;-71.354;2024-03-23T09:08:32;101708.75;;;0.78;71.51
81379;BME280;70830;42.290;-71.354;2024-03-23T09:10:57;101714.97;;;0.88;70.37
81379;BME280;70830;42.290;-71.354;2024-03-23T09:13:28;101719.41;;;0.95;70.70
81379;BME280;70830;42.290;-71.354;2024-03-23T09:15:54;101698.50;;;0.87;71.11
81379;BME280;70830;42.290;-71.354;2024-03-23T09:18:22;101706.41;;;0.93;71.78
81379;BME280;70830;42.290;-71.354;2024-03-23T09:20:48;101696.88;;;0.94;71.43
81379;BME280;70830;42.290;-71.354;2024-03-23T09:23:14;101689.00;;;0.89;71.18
81379;BME280;70830;42.290;-71.354;2024-03-23T09:25:40;101700.34;;;0.96;71.88
81379;BME280;70830;42.290;-71.354;2024-03-23T09:28:06;101662.00;;;0.75;72.00
81379;BME280;70830;42.290;-71.354;2024-03-23T09:30:36;101690.00;;;0.97;71.98
81379;BME280;70830;42.290;-71.354;2024-03-23T09:33:08;101691.75;;;0.98;72.19
81379;BME280;70830;42.290;-71.354;2024-03-23T09:35:38;101681.22;;;0.88;72.44
81379;BME280;70830;42.290;-71.354;2024-03-23T09:38:04;101703.91;;;1.01;72.68
81379;BME280;70830;42.290;-71.354;2024-03-23T09:40:30;101738.53;;;1.03;72.55
81379;BME280;70830;42.290;-71.354;2024-03-23T09:42:57;101731.56;;;0.99;72.75
81379;BME280;70830;42.290;-71.354;2024-03-23T09:45:27;101728.97;;;0.97;72.95
81379;BME280;70830;42.290;-71.354;2024-03-23T09:47:55;101749.78;;;1.02;72.99
81379;BME280;70830;42.290;-71.354;2024-03-23T09:50:22;101766.47;;;1.17;73.01
81379;BME280;70830;42.290;-71.354;2024-03-23T09:52:48;101775.16;;;1.19;72.53
81379;BME280;70830;42.290;-71.354;2024-03-23T09:55:14;101777.69;;;1.16;72.53
81379;BME280;70830;42.290;-71.354;2024-03-23T09:57:41;101778.72;;;1.27;72.86
81379;BME280;70830;42.290;-71.354;2024-03-23T10:00:07;101757.94;;;1.26;72.72
81379;BME280;70830;42.290;-71.354;2024-03-23T10:02:37;101745.84;;;1.28;73.01
81379;BME280;70830;42.290;-71.354;2024-03-23T10:05:03;101764.06;;;1.32;73.05
81379;BME280;70830;42.290;-71.354;2024-03-23T10:07:29;101760.53;;;1.27;73.16
81379;BME280;70830;42.290;-71.354;2024-03-23T10:09:55;101768.41;;;1.33;72.77
81379;BME280;70830;42.290;-71.354;2024-03-23T10:12:23;101751.97;;;1.33;73.49
81379;BME280;70830;42.290;-71.354;2024-03-23T10:14:49;101751.09;;;1.34;73.50
81379;BME280;70830;42.290;-71.354;2024-03-23T10:17:16;101743.34;;;1.35;72.97
81379;BME280;70830;42.290;-71.354;2024-03-23T10:19:47;101707.72;;;1.27;73.28
81379;BME280;70830;42.290;-71.354;2024-03-23T10:22:19;101702.63;;;1.34;73.48
81379;BME280;70830;42.290;-71.354;2024-03-23T10:24:46;101700.00;;;1.33;74.34
81379;BME280;70830;42.290;-71.354;2024-03-23T10:27:20;101704.28;;;1.29;73.66
81379;BME280;70830;42.290;-71.354;2024-03-23T10:29:46;101678.13;;;1.14;73.92
81379;BME280;70830;42.290;-71.354;2024-03-23T10:32:17;101667.69;;;1.11;74.05
81379;BME280;70830;42.290;-71.354;2024-03-23T10:34:43;101676.47;;;1.19;74.71
81379;BME280;70830;42.290;-71.354;2024-03-23T10:37:10;101686.03;;;1.25;74.44
81379;BME280;70830;42.290;-71.354;2024-03-23T10:39:38;101667.69;;;1.11;74.19
81379;BME280;70830;42.290;-71.354;2024-03-23T10:42:08;101672.97;;;1.17;74.37
81379;BME280;70830;42.290;-71.354;2024-03-23T10:44:36;101692.06;;;1.21;74.77
81379;BME280;70830;42.290;-71.354;2024-03-23T10:47:02;101683.31;;;1.14;74.13
81379;BME280;70830;42.290;-71.354;2024-03-23T10:49:32;101685.97;;;1.20;74.11
81379;BME280;70830;42.290;-71.354;2024-03-23T10:52:03;101693.75;;;1.19;74.32
81379;BME280;70830;42.290;-71.354;2024-03-23T10:54:30;101694.63;;;1.19;74.39
81379;BME280;70830;42.290;-71.354;2024-03-23T10:57:16;101686.03;;;1.23;74.99
81379;BME280;70830;42.290;-71.354;2024-03-23T10:59:44;101679.13;;;1.24;74.67
81379;BME280;70830;42.290;-71.354;2024-03-23T11:02:19;101682.66;;;1.29;74.41
81379;BME280;70830;42.290;-71.354;2024-03-23T11:04:45;101651.31;;;1.18;74.66
81379;BME280;70830;42.290;-71.354;2024-03-23T11:07:32;101647.00;;;1.17;75.19
81379;BME280;70830;42.290;-71.354;2024-03-23T11:09:59;101669.66;;;1.29;75.05
81379;BME280;70830;42.290;-71.354;2024-03-23T11:12:27;101662.72;;;1.29;74.83
81379;BME280;70830;42.290;-71.354;2024-03-23T11:17:28;101641.00;;;1.23;74.87
81379;BME280;70830;42.290;-71.354;2024-03-23T11:20:01;101649.72;;;1.29;75.18
81379;BME280;70830;42.290;-71.354;2024-03-23T11:22:40;101646.13;;;1.18;75.61
81379;BME280;70830;42.290;-71.354;2024-03-23T11:25:14;101635.81;;;1.23;74.84
81379;BME280;70830;42.290;-71.354;2024-03-23T11:27:40;101620.28;;;1.27;75.29
81379;BME280;70830;42.290;-71.354;2024-03-23T11:30:26;101627.28;;;1.36;74.25
81379;BME280;70830;42.290;-71.354;2024-03-23T11:32:57;101607.28;;;1.27;74.77
81379;BME280;70830;42.290;-71.354;2024-03-23T11:38:11;101606.56;;;1.37;75.66
81379;BME280;70830;42.290;-71.354;2024-03-23T11:40:48;101588.31;;;1.34;75.14
81379;BME280;70830;42.290;-71.354;2024-03-23T11:43:18;101595.34;;;1.41;74.92
81379;BME280;70830;42.290;-71.354;2024-03-23T11:45:52;101584.94;;;1.41;75.22
81379;BME280;70830;42.290;-71.354;2024-03-23T11:48:19;101590.13;;;1.41;76.06
81379;BME280;70830;42.290;-71.354;2024-03-23T11:50:46;101577.88;;;1.31;75.40
81379;BME280;70830;42.290;-71.354;2024-03-23T11:53:22;101584.94;;;1.40;75.48
81379;BME280;70830;42.290;-71.354;2024-03-23T11:55:52;101588.44;;;1.45;75.29
81379;BME280;70830;42.290;-71.354;2024-03-23T11:58:20;101563.28;;;1.41;75.50
81379;BME280;70830;42.290;-71.354;2024-03-23T12:03:25;101597.19;;;1.55;75.27
81379;BME280;70830;42.290;-71.354;2024-03-23T12:05:57;101604.16;;;1.59;75.67
81379;BME280;70830;42.290;-71.354;2024-03-23T12:08:33;101595.53;;;1.63;75.33
81379;BME280;70830;42.290;-71.354;2024-03-23T12:11:07;101582.53;;;1.63;75.51
81379;BME280;70830;42.290;-71.354;2024-03-23T12:13:34;101572.13;;;1.63;75.66
81379;BME280;70830;42.290;-71.354;2024-03-23T12:16:10;101583.53;;;1.77;75.88
81379;BME280;70830;42.290;-71.354;2024-03-23T12:18:39;101583.56;;;1.78;75.13
81379;BME280;70830;42.290;-71.354;2024-03-23T12:21:06;101567.06;;;1.75;75.53
81379;BME280;70830;42.290;-71.354;2024-03-23T12:23:33;101571.47;;;1.85;76.03
81379;BME280;70830;42.290;-71.354;2024-03-23T12:25:59;101575.84;;;1.86;75.71
81379;BME280;70830;42.290;-71.354;2024-03-23T12:28:25;101572.38;;;1.90;75.10
81379;BME280;70830;42.290;-71.354;2024-03-23T12:30:51;101567.19;;;1.91;76.00
81379;BME280;70830;42.290;-71.354;2024-03-23T12:33:18;101527.28;;;1.82;75.66
81379;BME280;70830;42.290;-71.354;2024-03-23T12:35:44;101542.94;;;1.92;75.77
81379;BME280;70830;42.290;-71.354;2024-03-23T12:38:10;101543.81;;;1.94;75.85
81379;BME280;70830;42.290;-71.354;2024-03-23T12:40:36;101536.88;;;1.92;76.45
81379;BME280;70830;42.290;-71.354;2024-03-23T12:43:02;101522.13;;;1.89;76.09
81379;BME280;70830;42.290;-71.354;2024-03-23T12:45:27;101513.47;;;1.89;76.41
81379;BME280;70830;42.290;-71.354;2024-03-23T12:47:53;101500.47;;;1.90;76.68
81379;BME280;70830;42.290;-71.354;2024-03-23T12:50:20;101499.66;;;2.00;76.49
81379;BME280;70830;42.290;-71.354;2024-03-23T12:52:46;101475.34;;;1.91;75.92
81379;BME280;70830;42.290;-71.354;2024-03-23T12:55:12;101507.56;;;2.11;76.52
81379;BME280;70830;42.290;-71.354;2024-03-23T12:57:38;101493.66;;;2.06;75.96
81379;BME280;70830;42.290;-71.354;2024-03-23T13:00:04;101512.78;;;2.17;76.08
81379;BME280;70830;42.290;-71.354;2024-03-23T13:02:31;101505.00;;;2.21;76.38
81379;BME280;70830;42.290;-71.354;2024-03-23T13:05:00;101484.19;;;2.18;76.53
81379;BME280;70830;42.290;-71.354;2024-03-23T13:07:26;101483.31;;;2.21;76.18
81379;BME280;70830;42.290;-71.354;2024-03-23T13:09:53;101487.72;;;2.27;76.16
81379;BME280;70830;42.290;-71.354;2024-03-23T13:12:19;101495.50;;;2.28;76.59
81379;BME280;70830;42.290;-71.354;2024-03-23T13:14:46;101492.06;;;2.34;76.38
81379;BME280;70830;42.290;-71.354;2024-03-23T13:17:12;101461.69;;;2.27;76.87
81379;BME280;70830;42.290;-71.354;2024-03-23T13:19:38;101469.56;;;2.43;75.98
81379;BME280;70830;42.290;-71.354;2024-03-23T13:22:05;101471.34;;;2.49;76.38
81379;BME280;70830;42.290;-71.354;2024-03-23T13:24:31;101467.88;;;2.53;76.68
81379;BME280;70830;42.290;-71.354;2024-03-23T13:26:57;101466.13;;;2.56;76.42
81379;BME280;70830;42.290;-71.354;2024-03-23T13:29:24;101460.09;;;2.59;76.52
81379;BME280;70830;42.290;-71.354;2024-03-23T13:31:50;101445.34;;;2.59;76.36
81379;BME280;70830;42.290;-71.354;2024-03-23T13:34:17;101423.66;;;2.69;76.76
81379;BME280;70830;42.290;-71.354;2024-03-23T13:36:44;101413.28;;;2.72;76.80
81379;BME280;70830;42.290;-71.354;2024-03-23T13:39:11;101406.34;;;2.74;76.90
81379;BME280;70830;42.290;-71.354;2024-03-23T13:41:44;101399.38;;;2.73;77.44